Time;durP1;ratioP1;P1;durP2;ratioP2;P2;SDS_P1;SDS_P2;PMS_P1;PMS_P2;Temp;Humidity;BMP_temperature;BMP_pressure;BME280_temperature;BME280_humidity;BME280_pressure;Samples;Min_cycle;Max_cycle;Signal;HPM_P1;HPM_P2
2022/01/20 00:01:14;;;;;;;12.77;3.70;;;;;;;;;;4993960;28;20224;-35
2022/01/20 00:03:42;;;;;;;14.65;3.55;;;;;;;;;;4988227;28;20233;-35
2022/01/20 00:23:16;;;;;;;12.63;3.20;;;;;;;;;;4951933;28;20236;-35
2022/01/20 00:26:15;;;;;;;16.65;3.22;;;;;;;;;;4989526;28;20235;-36
2022/01/20 00:28:47;;;;;;;13.70;3.45;;;;;;;;;;4990492;28;20246;-37
2022/01/20 00:34:09;;;;;;;15.50;3.70;;;;;;;;;;5011216;28;20231;-35
2022/01/20 00:39:22;;;;;;;17.00;3.63;;;;;;;;;;4991332;28;20239;-35
2022/01/20 00:41:49;;;;;;;13.30;3.67;;;;;;;;;;4987789;28;20236;-36
2022/01/20 00:44:17;;;;;;;17.30;3.47;;;;;;;;;;4990239;28;20251;-37
2022/01/20 00:46:44;;;;;;;14.07;3.50;;;;;;;;;;4998504;28;20239;-36
2022/01/20 00:49:11;;;;;;;16.90;3.42;;;;;;;;;;4991466;28;20236;-35
2022/01/20 00:51:38;;;;;;;17.75;3.55;;;;;;;;;;4992304;28;20232;-36
2022/01/20 00:54:05;;;;;;;12.95;3.03;;;;;;;;;;4992127;28;20236;-36
2022/01/20 00:56:32;;;;;;;10.88;3.08;;;;;;;;;;4992228;28;20224;-36
2022/01/20 00:58:59;;;;;;;9.05;2.85;;;;;;;;;;4998407;28;20615;-36
2022/01/20 01:01:26;;;;;;;12.73;2.90;;;;;;;;;;4994979;28;20706;-37
2022/01/20 01:03:53;;;;;;;11.35;2.80;;;;;;;;;;4992139;28;20224;-35
2022/01/20 01:08:59;;;;;;;16.63;3.40;;;;;;;;;;4992056;28;20240;-35
2022/01/20 01:11:26;;;;;;;13.55;3.30;;;;;;;;;;4989825;28;20232;-36
2022/01/20 01:13:55;;;;;;;14.15;2.80;;;;;;;;;;4991718;28;20228;-37
2022/01/20 01:16:32;;;;;;;12.60;2.75;;;;;;;;;;4994740;28;20238;-36
2022/01/20 01:21:52;;;;;;;9.52;3.05;;;;;;;;;;4994482;28;20243;-35
2022/01/20 01:24:19;;;;;;;10.48;3.50;;;;;;;;;;4995437;28;20972;-36
2022/01/20 01:26:46;;;;;;;12.23;2.60;;;;;;;;;;4994991;28;20259;-36
2022/01/20 01:29:36;;;;;;;10.90;2.63;;;;;;;;;;4994067;28;20234;-36
2022/01/20 01:32:00;;;;;;;13.13;2.88;;;;;;;;;;4996637;28;20232;-36
2022/01/20 01:34:29;;;;;;;9.27;3.00;;;;;;;;;;4994949;28;20227;-36
2022/01/20 01:37:06;;;;;;;10.98;2.63;;;;;;;;;;4980093;28;20239;-36
2022/01/20 01:39:33;;;;;;;10.55;2.40;;;;;;;;;;4990568;28;20235;-35
2022/01/20 01:42:00;;;;;;;10.57;2.60;;;;;;;;;;4992950;28;20266;-35
2022/01/20 01:44:30;;;;;;;10.00;2.50;;;;;;;;;;4994259;28;20995;-35
2022/01/20 01:46:58;;;;;;;10.00;3.20;;;;;;;;;;5010369;28;20246;-37
2022/01/20 01:49:25;;;;;;;9.07;2.83;;;;;;;;;;5014608;28;20243;-35
2022/01/20 01:51:52;;;;;;;12.00;2.50;;;;;;;;;;5002744;28;20244;-35
2022/01/20 01:54:19;;;;;;;10.23;2.25;;;;;;;;;;4994164;28;20270;-35
2022/01/20 01:56:46;;;;;;;8.18;2.50;;;;;;;;;;4994394;28;20236;-36
2022/01/20 01:59:13;;;;;;;7.70;2.33;;;;;;;;;;4994895;28;20234;-36
2022/01/20 02:01:41;;;;;;;8.75;2.45;;;;;;;;;;4995364;28;20236;-36
2022/01/20 02:04:26;;;;;;;7.25;1.95;;;;;;;;;;4994031;28;20279;-35
2022/01/20 02:07:22;;;;;;;9.27;2.15;;;;;;;;;;4994682;28;20235;-36
2022/01/20 02:17:51;;;;;;;10.13;2.03;;;;;;;;;;4994176;28;20279;-36
2022/01/20 02:20:47;;;;;;;9.27;2.08;;;;;;;;;;4975254;28;20719;-35
2022/01/20 02:23:14;;;;;;;7.15;1.83;;;;;;;;;;4993454;28;20315;-36
2022/01/20 02:25:41;;;;;;;8.27;1.75;;;;;;;;;;4994593;28;20213;-37
2022/01/20 02:28:08;;;;;;;6.40;1.92;;;;;;;;;;4993747;28;20248;-35
2022/01/20 02:30:35;;;;;;;9.40;2.10;;;;;;;;;;4992113;28;20733;-36
2022/01/20 02:33:02;;;;;;;8.95;2.28;;;;;;;;;;5004209;28;20240;-35
2022/01/20 02:35:29;;;;;;;8.88;2.40;;;;;;;;;;4992374;28;20259;-36
2022/01/20 02:38:21;;;;;;;8.75;2.10;;;;;;;;;;4992182;28;20236;-36
2022/01/20 02:45:59;;;;;;;9.82;2.30;;;;;;;;;;4996300;28;20248;-35
2022/01/20 02:48:26;;;;;;;7.82;1.80;;;;;;;;;;4993348;28;20236;-35
2022/01/20 02:50:53;;;;;;;9.07;1.90;;;;;;;;;;4993678;28;20236;-35
2022/01/20 02:53:20;;;;;;;7.53;2.00;;;;;;;;;;4993121;28;20232;-37
2022/01/20 02:55:47;;;;;;;6.47;1.90;;;;;;;;;;4993687;28;20224;-34
2022/01/20 02:58:14;;;;;;;4.93;1.70;;;;;;;;;;4993607;28;20247;-36
2022/01/20 03:00:41;;;;;;;7.07;2.00;;;;;;;;;;4994300;28;20222;-36
2022/01/20 03:03:08;;;;;;;6.05;1.45;;;;;;;;;;4986879;28;20232;-37
2022/01/20 03:05:36;;;;;;;5.90;1.70;;;;;;;;;;4989492;28;20271;-36
2022/01/20 03:08:03;;;;;;;6.28;1.67;;;;;;;;;;4993850;28;20220;-36
2022/01/20 03:10:29;;;;;;;9.45;2.08;;;;;;;;;;4993250;28;20240;-35
2022/01/20 03:12:56;;;;;;;5.72;1.60;;;;;;;;;;4993378;28;20236;-36
2022/01/20 03:15:23;;;;;;;7.25;1.83;;;;;;;;;;4995935;28;20228;-36
2022/01/20 03:17:50;;;;;;;7.95;1.63;;;;;;;;;;4993433;28;20224;-36
2022/01/20 03:20:17;;;;;;;9.20;1.77;;;;;;;;;;4993596;28;20258;-37
2022/01/20 03:22:44;;;;;;;6.13;1.70;;;;;;;;;;4992888;28;20236;-35
2022/01/20 03:25:13;;;;;;;7.20;1.65;;;;;;;;;;4993027;28;20232;-36
2022/01/20 03:27:40;;;;;;;5.57;1.77;;;;;;;;;;4994172;28;20271;-37
2022/01/20 03:30:07;;;;;;;6.47;1.45;;;;;;;;;;4993556;28;20622;-36
2022/01/20 03:32:34;;;;;;;6.47;1.73;;;;;;;;;;4995173;28;20262;-35
2022/01/20 03:35:01;;;;;;;6.68;1.75;;;;;;;;;;4993137;28;21004;-36
2022/01/20 03:37:28;;;;;;;10.43;1.85;;;;;;;;;;4992407;28;20232;-36
2022/01/20 03:39:55;;;;;;;5.05;1.48;;;;;;;;;;4988906;28;20236;-35
2022/01/20 03:42:22;;;;;;;5.60;1.25;;;;;;;;;;4991967;28;20236;-36
2022/01/20 03:44:49;;;;;;;4.70;1.65;;;;;;;;;;4992995;28;20224;-36
2022/01/20 03:47:18;;;;;;;5.00;1.40;;;;;;;;;;5008435;28;20745;-36
2022/01/20 03:49:55;;;;;;;5.38;1.60;;;;;;;;;;4993189;28;20710;-35
2022/01/20 03:52:22;;;;;;;4.93;1.65;;;;;;;;;;4993064;28;20236;-37
2022/01/20 03:54:49;;;;;;;5.38;1.88;;;;;;;;;;4993019;28;20232;-36
2022/01/20 03:57:17;;;;;;;5.20;1.92;;;;;;;;;;4993280;28;20212;-35
2022/01/20 03:59:44;;;;;;;5.40;1.30;;;;;;;;;;4992378;28;20324;-35
2022/01/20 04:02:11;;;;;;;13.88;1.67;;;;;;;;;;4993814;28;20267;-37
2022/01/20 04:04:38;;;;;;;8.38;1.65;;;;;;;;;;4993061;28;20252;-36
2022/01/20 04:07:05;;;;;;;5.75;1.50;;;;;;;;;;4992370;28;20239;-37
2022/01/20 04:09:32;;;;;;;4.05;1.40;;;;;;;;;;4992642;28;20251;-36
2022/01/20 04:11:59;;;;;;;5.93;1.63;;;;;;;;;;4992587;28;20698;-36
2022/01/20 04:14:28;;;;;;;3.92;1.00;;;;;;;;;;4992472;28;20258;-36
2022/01/20 04:17:04;;;;;;;5.35;1.40;;;;;;;;;;4995428;28;21038;-36
2022/01/20 04:19:32;;;;;;;5.05;1.60;;;;;;;;;;4992678;28;20928;-36
2022/01/20 04:21:59;;;;;;;6.30;1.80;;;;;;;;;;4991837;28;20291;-35
2022/01/20 04:24:26;;;;;;;4.07;1.20;;;;;;;;;;4992733;28;20224;-37
2022/01/20 04:26:53;;;;;;;5.10;1.20;;;;;;;;;;4991937;28;20232;-36
2022/01/20 04:29:20;;;;;;;5.00;1.30;;;;;;;;;;4992282;28;20228;-36
2022/01/20 04:31:48;;;;;;;3.78;0.98;;;;;;;;;;4995670;28;20236;-35
2022/01/20 04:34:15;;;;;;;2.08;1.05;;;;;;;;;;4992389;28;20695;-36
2022/01/20 04:36:45;;;;;;;6.03;1.00;;;;;;;;;;4992111;28;20239;-37
2022/01/20 04:39:14;;;;;;;4.05;1.20;;;;;;;;;;4992721;28;20232;-36
2022/01/20 04:41:41;;;;;;;4.03;1.00;;;;;;;;;;4992219;28;20240;-36
2022/01/20 04:44:13;;;;;;;4.68;1.27;;;;;;;;;;4991593;28;21573;-37
2022/01/20 04:47:11;;;;;;;5.43;1.30;;;;;;;;;;4994445;28;20275;-37
2022/01/20 04:57:44;;;;;;;3.05;0.82;;;;;;;;;;4991871;28;20231;-37
2022/01/20 05:00:11;;;;;;;2.72;1.05;;;;;;;;;;4993149;28;20212;-35
2022/01/20 05:02:38;;;;;;;7.10;0.90;;;;;;;;;;4991783;28;20236;-36
2022/01/20 05:05:07;;;;;;;4.95;0.93;;;;;;;;;;4991666;28;20230;-36
2022/01/20 05:07:35;;;;;;;5.00;1.60;;;;;;;;;;4991581;28;20232;-36
2022/01/20 05:10:06;;;;;;;4.53;1.17;;;;;;;;;;4991638;28;20240;-36
2022/01/20 05:15:18;;;;;;;2.30;0.77;;;;;;;;;;4991811;28;20228;-35
2022/01/20 05:17:45;;;;;;;4.32;1.08;;;;;;;;;;4992084;28;20694;-37
2022/01/20 05:20:12;;;;;;;2.38;0.80;;;;;;;;;;4991881;28;20609;-37
2022/01/20 05:22:44;;;;;;;2.88;1.08;;;;;;;;;;4991736;28;20275;-36
2022/01/20 05:25:11;;;;;;;4.38;1.10;;;;;;;;;;4992028;28;20239;-36
2022/01/20 05:27:38;;;;;;;3.75;0.88;;;;;;;;;;4990652;28;20282;-36
2022/01/20 05:30:05;;;;;;;4.93;1.10;;;;;;;;;;4991463;28;20240;-37
2022/01/20 05:32:32;;;;;;;3.63;1.55;;;;;;;;;;5011274;28;20231;-35
2022/01/20 05:34:59;;;;;;;3.78;1.20;;;;;;;;;;5011230;28;20227;-36
2022/01/20 05:37:25;;;;;;;5.38;1.30;;;;;;;;;;4993771;28;20232;-35
2022/01/20 05:39:52;;;;;;;6.35;1.17;;;;;;;;;;4990673;28;20236;-36
2022/01/20 05:42:19;;;;;;;2.33;1.00;;;;;;;;;;4991258;28;20236;-37
2022/01/20 05:44:50;;;;;;;4.68;0.95;;;;;;;;;;4991749;28;20251;-36
2022/01/20 05:47:25;;;;;;;4.43;1.00;;;;;;;;;;4993765;28;20240;-36
2022/01/20 05:49:52;;;;;;;4.53;1.10;;;;;;;;;;4991044;28;20235;-36
2022/01/20 05:52:19;;;;;;;5.38;1.17;;;;;;;;;;4991623;28;20246;-37
2022/01/20 05:54:46;;;;;;;2.40;1.00;;;;;;;;;;4991318;28;20224;-36
2022/01/20 05:57:13;;;;;;;5.60;1.60;;;;;;;;;;4990924;28;20232;-35
2022/01/20 05:59:40;;;;;;;5.65;1.38;;;;;;;;;;4990339;28;20228;-36
2022/01/20 06:02:27;;;;;;;5.60;1.25;;;;;;;;;;4992026;28;21104;-36
2022/01/20 06:04:54;;;;;;;3.80;1.05;;;;;;;;;;4991357;28;20224;-36
2022/01/20 06:07:21;;;;;;;4.10;1.40;;;;;;;;;;4993355;28;20232;-36
2022/01/20 06:09:48;;;;;;;3.88;0.93;;;;;;;;;;4994309;28;20235;-36
2022/01/20 06:12:15;;;;;;;3.95;1.00;;;;;;;;;;4993873;28;20236;-37
2022/01/20 06:14:42;;;;;;;3.50;1.30;;;;;;;;;;4994648;28;20235;-35
2022/01/20 06:17:09;;;;;;;3.70;1.10;;;;;;;;;;4997232;28;20220;-35
2022/01/20 06:19:36;;;;;;;3.05;1.02;;;;;;;;;;4994629;28;20230;-35
2022/01/20 06:22:03;;;;;;;4.57;1.10;;;;;;;;;;4993427;28;20239;-35
2022/01/20 06:24:30;;;;;;;4.13;1.05;;;;;;;;;;4994436;28;20324;-35
2022/01/20 06:26:58;;;;;;;5.22;1.60;;;;;;;;;;4993771;28;20290;-36
2022/01/20 06:29:25;;;;;;;5.40;1.65;;;;;;;;;;4994359;28;20236;-38
2022/01/20 06:31:52;;;;;;;4.13;1.17;;;;;;;;;;5008601;28;20247;-37
2022/01/20 06:34:19;;;;;;;4.25;1.08;;;;;;;;;;4995154;28;20239;-36
2022/01/20 06:36:47;;;;;;;6.15;1.15;;;;;;;;;;4993950;28;20311;-35
2022/01/20 06:39:14;;;;;;;4.05;1.38;;;;;;;;;;4994428;28;20591;-37
2022/01/20 06:41:45;;;;;;;2.28;0.80;;;;;;;;;;4994135;28;20235;-40
2022/01/20 06:44:12;;;;;;;5.53;1.63;;;;;;;;;;4992917;28;20232;-35
2022/01/20 06:46:40;;;;;;;5.18;1.52;;;;;;;;;;4995780;28;20240;-36
2022/01/20 06:49:08;;;;;;;6.25;1.45;;;;;;;;;;4993848;28;20243;-37
2022/01/20 06:51:35;;;;;;;5.35;1.75;;;;;;;;;;4993737;28;20699;-36
2022/01/20 06:54:02;;;;;;;3.83;1.10;;;;;;;;;;4993901;28;20234;-37
2022/01/20 06:56:29;;;;;;;2.80;1.10;;;;;;;;;;4992858;28;20242;-38
2022/01/20 06:59:06;;;;;;;6.50;1.10;;;;;;;;;;4993919;28;20278;-36
2022/01/20 07:01:33;;;;;;;5.30;1.50;;;;;;;;;;4994393;28;20243;-37
2022/01/20 07:04:01;;;;;;;4.68;1.10;;;;;;;;;;4993853;28;20340;-37
2022/01/20 07:06:28;;;;;;;4.53;1.27;;;;;;;;;;4992539;28;20232;-35
2022/01/20 07:08:56;;;;;;;5.90;1.25;;;;;;;;;;4993888;28;20228;-37
2022/01/20 07:11:24;;;;;;;4.07;1.13;;;;;;;;;;4992087;28;20275;-34
2022/01/20 07:13:50;;;;;;;4.38;1.30;;;;;;;;;;4993612;28;20259;-36
2022/01/20 07:16:17;;;;;;;3.72;1.30;;;;;;;;;;4995026;28;20393;-34
2022/01/20 07:18:45;;;;;;;5.35;1.75;;;;;;;;;;4974037;28;20228;-34
2022/01/20 07:21:12;;;;;;;5.03;1.30;;;;;;;;;;4980074;28;20327;-34
2022/01/20 07:23:38;;;;;;;3.60;1.20;;;;;;;;;;4993537;28;20235;-34
2022/01/20 07:26:05;;;;;;;6.35;1.75;;;;;;;;;;4993640;28;20231;-35
2022/01/20 07:28:32;;;;;;;6.28;1.38;;;;;;;;;;4992752;28;20235;-34
2022/01/20 07:30:59;;;;;;;5.63;1.10;;;;;;;;;;5000510;28;21131;-35
2022/01/20 07:33:26;;;;;;;4.80;1.52;;;;;;;;;;4994648;28;20228;-35
2022/01/20 07:35:53;;;;;;;4.63;1.70;;;;;;;;;;4992928;28;20236;-34
2022/01/20 07:38:21;;;;;;;4.85;1.55;;;;;;;;;;4993010;28;20702;-34
2022/01/20 07:40:48;;;;;;;5.15;1.25;;;;;;;;;;4992940;28;20695;-34
2022/01/20 07:43:15;;;;;;;5.95;1.20;;;;;;;;;;4992693;28;20232;-37
2022/01/20 07:45:41;;;;;;;4.43;1.55;;;;;;;;;;4995670;28;20701;-34
2022/01/20 07:48:08;;;;;;;5.25;1.48;;;;;;;;;;4992700;28;20246;-35
2022/01/20 07:50:35;;;;;;;3.70;1.10;;;;;;;;;;4991931;28;20667;-37
2022/01/20 07:53:02;;;;;;;5.93;1.40;;;;;;;;;;4992685;28;20236;-36
2022/01/20 07:55:29;;;;;;;2.97;1.08;;;;;;;;;;4992339;28;20232;-36
2022/01/20 07:57:56;;;;;;;5.47;1.33;;;;;;;;;;4991600;28;20240;-36
2022/01/20 08:00:23;;;;;;;4.93;1.20;;;;;;;;;;4992250;28;20242;-36
2022/01/20 08:02:50;;;;;;;4.07;1.30;;;;;;;;;;4993007;28;20224;-38
2022/01/20 08:05:17;;;;;;;6.70;1.40;;;;;;;;;;4993154;28;20327;-36
2022/01/20 08:07:44;;;;;;;4.35;1.23;;;;;;;;;;4992674;28;20236;-35
2022/01/20 08:10:13;;;;;;;3.95;0.95;;;;;;;;;;4992718;28;20282;-36
2022/01/20 08:12:43;;;;;;;4.13;1.48;;;;;;;;;;4992104;28;20983;-37
2022/01/20 08:15:12;;;;;;;4.97;1.55;;;;;;;;;;4993396;28;20224;-36
2022/01/20 08:17:38;;;;;;;6.00;1.25;;;;;;;;;;4994148;28;20236;-37
2022/01/20 08:20:05;;;;;;;5.38;1.50;;;;;;;;;;4992803;28;20232;-37
2022/01/20 08:22:34;;;;;;;9.25;1.80;;;;;;;;;;4992148;28;20228;-36
2022/01/20 08:25:02;;;;;;;6.18;1.38;;;;;;;;;;4992684;28;20236;-36
2022/01/20 08:27:29;;;;;;;3.88;1.17;;;;;;;;;;4992106;28;20424;-35
2022/01/20 08:29:56;;;;;;;5.03;1.70;;;;;;;;;;4991807;28;20236;-37
2022/01/20 08:32:23;;;;;;;7.18;1.60;;;;;;;;;;4995122;28;20733;-35
2022/01/20 08:34:50;;;;;;;5.32;1.52;;;;;;;;;;4991550;28;20238;-35
2022/01/20 08:37:17;;;;;;;7.72;1.40;;;;;;;;;;4991896;28;20240;-35
2022/01/20 08:39:47;;;;;;;9.27;1.52;;;;;;;;;;4992302;28;20232;-38
2022/01/20 08:42:14;;;;;;;5.65;1.52;;;;;;;;;;4992080;28;20228;-37
2022/01/20 08:44:41;;;;;;;4.72;1.20;;;;;;;;;;4991759;28;20235;-35
2022/01/20 08:47:14;;;;;;;3.63;0.98;;;;;;;;;;5009306;28;20250;-35
2022/01/20 08:49:41;;;;;;;5.53;1.50;;;;;;;;;;4997866;28;20263;-36
2022/01/20 08:52:08;;;;;;;7.30;1.45;;;;;;;;;;4993012;28;20248;-36
2022/01/20 08:54:35;;;;;;;5.40;1.27;;;;;;;;;;4992131;28;20232;-36
2022/01/20 08:57:02;;;;;;;5.10;1.58;;;;;;;;;;4989175;28;20236;-34
2022/01/20 08:59:29;;;;;;;5.78;1.25;;;;;;;;;;4991650;28;20247;-35
2022/01/20 09:01:57;;;;;;;9.85;1.60;;;;;;;;;;4990621;28;20500;-34
2022/01/20 09:04:24;;;;;;;16.23;2.25;;;;;;;;;;4991583;28;21233;-35
2022/01/20 09:06:51;;;;;;;17.42;2.25;;;;;;;;;;4990114;28;20419;-35
2022/01/20 09:09:20;;;;;;;22.02;1.70;;;;;;;;;;4991974;28;20232;-35
2022/01/20 09:12:15;;;;;;;13.60;2.10;;;;;;;;;;4990912;28;20231;-36
2022/01/20 09:17:28;;;;;;;9.02;1.50;;;;;;;;;;4989649;28;20251;-35
2022/01/20 09:19:55;;;;;;;13.65;2.33;;;;;;;;;;4991621;28;20242;-34
2022/01/20 09:22:22;;;;;;;9.02;1.98;;;;;;;;;;4991777;28;20235;-34
2022/01/20 09:24:49;;;;;;;8.07;1.27;;;;;;;;;;4991804;28;20228;-34
2022/01/20 09:27:17;;;;;;;9.73;1.48;;;;;;;;;;4990846;28;20236;-33
2022/01/20 09:29:45;;;;;;;7.82;1.63;;;;;;;;;;4990692;28;20258;-34
2022/01/20 09:32:16;;;;;;;6.75;1.83;;;;;;;;;;4993029;28;21087;-35
2022/01/20 09:34:42;;;;;;;8.82;1.75;;;;;;;;;;4991606;28;20239;-35
2022/01/20 09:37:09;;;;;;;11.25;2.03;;;;;;;;;;4991221;28;20242;-34
2022/01/20 09:39:40;;;;;;;6.90;1.55;;;;;;;;;;4989705;28;20236;-34
2022/01/20 09:42:07;;;;;;;9.50;1.58;;;;;;;;;;4989152;28;20263;-35
2022/01/20 09:44:34;;;;;;;7.47;1.42;;;;;;;;;;4994401;28;20243;-35
2022/01/20 09:47:01;;;;;;;6.07;1.40;;;;;;;;;;4993257;28;20244;-34
2022/01/20 09:49:28;;;;;;;7.50;1.63;;;;;;;;;;4994311;28;20239;-35
2022/01/20 09:51:55;;;;;;;9.18;1.50;;;;;;;;;;4993742;28;20236;-36
2022/01/20 09:54:22;;;;;;;8.73;1.20;;;;;;;;;;4994279;28;20232;-35
2022/01/20 09:56:49;;;;;;;7.95;1.35;;;;;;;;;;4994561;28;20236;-34
2022/01/20 09:59:16;;;;;;;6.68;1.83;;;;;;;;;;4994710;28;20232;-34
2022/01/20 10:01:43;;;;;;;9.13;1.75;;;;;;;;;;4994055;28;20934;-35
2022/01/20 10:04:10;;;;;;;6.70;1.50;;;;;;;;;;4994219;28;20274;-34
2022/01/20 10:06:37;;;;;;;9.00;1.67;;;;;;;;;;4994594;28;20978;-41
2022/01/20 10:09:04;;;;;;;9.48;1.75;;;;;;;;;;4994505;28;20699;-46
2022/01/20 10:11:46;;;;;;;5.82;1.58;;;;;;;;;;4994183;28;20243;-45
2022/01/20 10:14:13;;;;;;;7.68;1.75;;;;;;;;;;4977121;28;20236;-44
2022/01/20 10:16:40;;;;;;;7.45;1.42;;;;;;;;;;4990066;28;20239;-46
2022/01/20 10:19:07;;;;;;;5.63;1.60;;;;;;;;;;4994910;28;20259;-46
2022/01/20 10:21:34;;;;;;;5.75;1.90;;;;;;;;;;4994317;28;20228;-48
2022/01/20 10:24:01;;;;;;;6.00;1.30;;;;;;;;;;4991204;28;20271;-46
2022/01/20 10:26:28;;;;;;;5.82;1.30;;;;;;;;;;4993111;28;20778;-47
2022/01/20 10:28:55;;;;;;;4.03;1.50;;;;;;;;;;4993498;28;20238;-46
2022/01/20 10:31:22;;;;;;;5.15;1.90;;;;;;;;;;4992635;28;20232;-45
2022/01/20 10:33:49;;;;;;;7.20;1.77;;;;;;;;;;4991458;28;21156;-46
2022/01/20 10:36:16;;;;;;;8.90;1.42;;;;;;;;;;4991595;28;20232;-46
2022/01/20 10:38:43;;;;;;;6.03;1.70;;;;;;;;;;4992556;28;20903;-46
2022/01/20 10:41:10;;;;;;;6.40;1.58;;;;;;;;;;4992589;28;20239;-46
2022/01/20 10:43:39;;;;;;;5.63;1.35;;;;;;;;;;4993815;28;20266;-47
2022/01/20 10:46:06;;;;;;;7.75;1.33;;;;;;;;;;4989779;28;20228;-46
2022/01/20 10:48:33;;;;;;;7.55;1.75;;;;;;;;;;4989127;28;20247;-45
2022/01/20 10:51:00;;;;;;;7.20;1.70;;;;;;;;;;4991246;28;20228;-46
2022/01/20 10:53:27;;;;;;;8.82;1.63;;;;;;;;;;4991409;28;20236;-45
2022/01/20 10:55:54;;;;;;;5.47;1.65;;;;;;;;;;4991872;28;20232;-46
2022/01/20 10:58:22;;;;;;;6.15;1.70;;;;;;;;;;4991667;28;20239;-45
2022/01/20 11:00:49;;;;;;;3.97;1.30;;;;;;;;;;4991652;28;20224;-47
2022/01/20 11:03:16;;;;;;;4.65;1.25;;;;;;;;;;4991678;28;20243;-45
2022/01/20 11:05:49;;;;;;;7.05;1.85;;;;;;;;;;4991129;28;20504;-45
2022/01/20 11:08:16;;;;;;;5.25;1.52;;;;;;;;;;4991477;28;20714;-44
2022/01/20 11:10:44;;;;;;;11.63;1.60;;;;;;;;;;4991251;28;20224;-45
2022/01/20 11:13:11;;;;;;;13.77;1.65;;;;;;;;;;4991330;28;20240;-46
2022/01/20 11:15:40;;;;;;;11.68;1.83;;;;;;;;;;4993279;28;20238;-45
2022/01/20 11:18:08;;;;;;;13.82;1.90;;;;;;;;;;4990388;28;21291;-37
2022/01/20 11:20:35;;;;;;;9.43;1.60;;;;;;;;;;4991249;28;20232;-40
2022/01/20 11:23:02;;;;;;;9.20;1.70;;;;;;;;;;4989206;28;20242;-40
2022/01/20 11:25:29;;;;;;;10.20;2.08;;;;;;;;;;4991417;28;21032;-41
2022/01/20 11:27:56;;;;;;;10.55;1.80;;;;;;;;;;4990954;28;20237;-42
2022/01/20 11:30:26;;;;;;;12.02;1.95;;;;;;;;;;4990571;28;20617;-41
2022/01/20 11:32:53;;;;;;;7.63;1.73;;;;;;;;;;4987549;28;20248;-37
2022/01/20 11:35:21;;;;;;;8.63;1.60;;;;;;;;;;4989710;28;20899;-40
2022/01/20 11:37:48;;;;;;;6.15;1.90;;;;;;;;;;4985395;28;21065;-41
2022/01/20 11:40:16;;;;;;;5.80;1.52;;;;;;;;;;4982275;28;20228;-36
2022/01/20 11:42:43;;;;;;;9.27;1.60;;;;;;;;;;4983187;28;20733;-41
2022/01/20 11:45:10;;;;;;;7.18;1.58;;;;;;;;;;4992348;28;20673;-36
2022/01/20 11:47:37;;;;;;;5.30;1.55;;;;;;;;;;4991792;28;20660;-41
2022/01/20 11:50:04;;;;;;;8.80;1.60;;;;;;;;;;4992789;28;20982;-40
2022/01/20 11:52:31;;;;;;;6.05;1.42;;;;;;;;;;4986908;28;20993;-39
2022/01/20 11:55:18;;;;;;;5.47;1.40;;;;;;;;;;4990174;28;20329;-39
2022/01/20 11:57:45;;;;;;;13.00;1.60;;;;;;;;;;4992559;28;20242;-36
2022/01/20 12:00:13;;;;;;;12.18;2.70;;;;;;;;;;4993877;28;20973;-39
2022/01/20 12:02:40;;;;;;;12.10;1.60;;;;;;;;;;4993400;28;20232;-39
2022/01/20 12:05:07;;;;;;;10.75;1.60;;;;;;;;;;4991977;28;20729;-36
2022/01/20 12:07:34;;;;;;;10.45;1.50;;;;;;;;;;4992176;28;20236;-35
2022/01/20 12:10:01;;;;;;;6.97;1.27;;;;;;;;;;4991430;28;20260;-40
2022/01/20 12:12:28;;;;;;;10.30;1.95;;;;;;;;;;4981402;28;20236;-35
2022/01/20 12:14:55;;;;;;;10.38;1.73;;;;;;;;;;4982912;28;20280;-37
2022/01/20 12:17:22;;;;;;;11.27;2.13;;;;;;;;;;4987910;28;20922;-37
2022/01/20 12:19:49;;;;;;;7.63;1.92;;;;;;;;;;4987005;28;20224;-33
2022/01/20 12:22:17;;;;;;;7.35;2.30;;;;;;;;;;4991488;28;20379;-33
2022/01/20 12:24:44;;;;;;;8.48;2.13;;;;;;;;;;4990533;28;20472;-33
2022/01/20 12:27:11;;;;;;;4.03;1.85;;;;;;;;;;4983705;28;20244;-34
2022/01/20 12:29:38;;;;;;;10.45;2.20;;;;;;;;;;4972599;28;20236;-35
2022/01/20 12:32:05;;;;;;;5.90;1.73;;;;;;;;;;4990684;28;20244;-33
2022/01/20 12:34:32;;;;;;;3.70;1.60;;;;;;;;;;4992322;28;20232;-34
2022/01/20 12:36:59;;;;;;;7.28;1.70;;;;;;;;;;4990993;28;20243;-35
2022/01/20 12:39:26;;;;;;;10.38;2.58;;;;;;;;;;4981860;28;20426;-33
2022/01/20 12:41:53;;;;;;;14.68;2.25;;;;;;;;;;4991431;28;20711;-34
2022/01/20 12:44:20;;;;;;;8.80;1.92;;;;;;;;;;4985710;28;20243;-33
2022/01/20 12:46:47;;;;;;;7.72;2.00;;;;;;;;;;4987992;28;20248;-33
2022/01/20 12:49:16;;;;;;;5.68;2.13;;;;;;;;;;4989805;28;20224;-31
2022/01/20 12:51:43;;;;;;;8.38;1.80;;;;;;;;;;4991071;28;20244;-35
2022/01/20 12:54:11;;;;;;;6.70;1.77;;;;;;;;;;4991900;28;20266;-33
2022/01/20 12:56:38;;;;;;;7.63;1.65;;;;;;;;;;4991670;28;20232;-32
2022/01/20 12:59:05;;;;;;;7.55;1.90;;;;;;;;;;4991238;28;20951;-33
2022/01/20 13:01:52;;;;;;;3.78;1.40;;;;;;;;;;5006213;28;20231;-31
2022/01/20 13:04:20;;;;;;;4.47;1.52;;;;;;;;;;5011485;28;20219;-35
2022/01/20 13:06:51;;;;;;;4.05;1.33;;;;;;;;;;5011183;28;20314;-36
2022/01/20 13:09:21;;;;;;;3.63;1.50;;;;;;;;;;4996763;28;20972;-34
2022/01/20 13:11:59;;;;;;;6.28;1.67;;;;;;;;;;4991639;28;20981;-32
2022/01/20 13:14:26;;;;;;;4.95;1.45;;;;;;;;;;4991527;28;20224;-33
2022/01/20 13:16:53;;;;;;;4.10;1.35;;;;;;;;;;5008785;28;20231;-34
2022/01/20 13:19:21;;;;;;;4.28;1.52;;;;;;;;;;5011794;28;20231;-34
2022/01/20 13:21:53;;;;;;;6.85;1.77;;;;;;;;;;4995201;28;20346;-34
2022/01/20 13:24:20;;;;;;;3.67;1.23;;;;;;;;;;4995242;28;20235;-32
2022/01/20 13:26:47;;;;;;;5.72;1.45;;;;;;;;;;4995005;28;20232;-35
2022/01/20 13:29:14;;;;;;;5.40;1.58;;;;;;;;;;4994636;28;20230;-35
2022/01/20 13:31:41;;;;;;;5.32;1.52;;;;;;;;;;4994238;28;20228;-33
2022/01/20 13:34:08;;;;;;;5.13;1.80;;;;;;;;;;4994392;28;20330;-31
2022/01/20 13:36:35;;;;;;;3.72;1.50;;;;;;;;;;4994707;28;20239;-34
2022/01/20 13:39:02;;;;;;;6.28;1.73;;;;;;;;;;4994651;28;20276;-32
2022/01/20 13:41:29;;;;;;;6.75;1.70;;;;;;;;;;4994137;28;20232;-31
2022/01/20 13:46:42;;;;;;;4.53;1.80;;;;;;;;;;4996926;28;20247;-33
2022/01/20 13:49:09;;;;;;;4.13;1.38;;;;;;;;;;4994403;28;20263;-33
2022/01/20 13:51:36;;;;;;;3.60;1.25;;;;;;;;;;4994464;28;20319;-33
2022/01/20 13:54:03;;;;;;;6.13;1.70;;;;;;;;;;4993742;28;20650;-34
2022/01/20 13:56:30;;;;;;;2.97;1.08;;;;;;;;;;4994080;28;20231;-31
2022/01/20 13:58:57;;;;;;;3.22;1.23;;;;;;;;;;4994231;28;20222;-31
2022/01/20 14:01:24;;;;;;;3.60;1.30;;;;;;;;;;5005297;28;20262;-34
2022/01/20 14:03:51;;;;;;;4.28;1.33;;;;;;;;;;5007160;28;20238;-33
2022/01/20 14:06:18;;;;;;;5.13;1.48;;;;;;;;;;4994518;28;20232;-32
2022/01/20 14:08:47;;;;;;;3.33;1.23;;;;;;;;;;4994027;28;20700;-34
2022/01/20 14:11:14;;;;;;;2.83;1.13;;;;;;;;;;4994045;28;20318;-32
2022/01/20 14:13:40;;;;;;;5.32;1.33;;;;;;;;;;4994241;28;20235;-31
2022/01/20 14:16:07;;;;;;;3.78;1.40;;;;;;;;;;5002211;28;20237;-32
2022/01/20 14:18:42;;;;;;;3.45;1.00;;;;;;;;;;5014029;28;20657;-35
2022/01/20 14:21:09;;;;;;;3.47;1.35;;;;;;;;;;5013216;28;20223;-33
2022/01/20 14:23:36;;;;;;;6.70;1.70;;;;;;;;;;4997798;28;20435;-37
2022/01/20 14:26:05;;;;;;;4.80;1.42;;;;;;;;;;4993390;28;20232;-34
2022/01/20 14:28:32;;;;;;;5.35;1.42;;;;;;;;;;4993524;28;20224;-35
2022/01/20 14:30:59;;;;;;;2.97;1.30;;;;;;;;;;5001406;28;20223;-33
2022/01/20 14:33:26;;;;;;;5.70;1.17;;;;;;;;;;4994147;28;20718;-33
2022/01/20 14:35:53;;;;;;;6.20;2.17;;;;;;;;;;4991972;28;20702;-37
2022/01/20 14:38:20;;;;;;;7.03;1.20;;;;;;;;;;4998253;28;20228;-42
2022/01/20 14:40:47;;;;;;;4.65;1.35;;;;;;;;;;4995556;28;20371;-38
2022/01/20 14:43:14;;;;;;;5.50;1.25;;;;;;;;;;4995702;28;21187;-38
2022/01/20 14:45:41;;;;;;;6.28;1.30;;;;;;;;;;4998307;28;21087;-32
2022/01/20 14:48:08;;;;;;;6.45;1.05;;;;;;;;;;4994425;28;20251;-31
2022/01/20 14:50:35;;;;;;;6.35;1.30;;;;;;;;;;4997936;28;20238;-34
2022/01/20 14:53:05;;;;;;;5.32;1.10;;;;;;;;;;4997542;28;20719;-32
2022/01/20 14:55:32;;;;;;;5.88;1.65;;;;;;;;;;4993727;28;20240;-34
2022/01/20 14:57:59;;;;;;;7.50;1.45;;;;;;;;;;4993294;28;20229;-33
2022/01/20 15:00:26;;;;;;;6.70;1.48;;;;;;;;;;4993923;28;20446;-35
2022/01/20 15:02:53;;;;;;;5.20;1.20;;;;;;;;;;4986498;28;20244;-33
2022/01/20 15:05:21;;;;;;;3.38;0.90;;;;;;;;;;4980467;28;20240;-31
2022/01/20 15:07:48;;;;;;;4.03;1.00;;;;;;;;;;4976661;28;20292;-36
2022/01/20 15:10:15;;;;;;;6.25;1.25;;;;;;;;;;4992113;28;20236;-32
2022/01/20 15:12:42;;;;;;;4.82;1.20;;;;;;;;;;4993443;28;20232;-33
2022/01/20 15:15:09;;;;;;;6.25;1.25;;;;;;;;;;4993330;28;20231;-37
2022/01/20 15:17:39;;;;;;;4.32;1.20;;;;;;;;;;4993658;28;20279;-33
2022/01/20 15:20:06;;;;;;;5.25;1.00;;;;;;;;;;4993174;28;20315;-33
2022/01/20 15:22:33;;;;;;;5.30;1.40;;;;;;;;;;4993369;28;20231;-34
2022/01/20 15:25:00;;;;;;;4.65;1.30;;;;;;;;;;4990248;28;20238;-33
2022/01/20 15:27:27;;;;;;;2.75;1.00;;;;;;;;;;4993233;28;20232;-36
2022/01/20 15:29:54;;;;;;;3.20;1.10;;;;;;;;;;4993154;28;20687;-35
2022/01/20 15:32:38;;;;;;;3.15;0.90;;;;;;;;;;4976707;28;20272;-32
2022/01/20 15:35:05;;;;;;;5.60;1.00;;;;;;;;;;4972943;28;20236;-33
2022/01/20 15:37:32;;;;;;;2.72;1.13;;;;;;;;;;4973334;28;20224;-35
2022/01/20 15:39:59;;;;;;;8.38;1.25;;;;;;;;;;4986740;28;20267;-33
2022/01/20 15:42:26;;;;;;;10.18;1.38;;;;;;;;;;4975499;28;20254;-33
2022/01/20 15:44:53;;;;;;;10.63;1.30;;;;;;;;;;4992664;28;20247;-31